createdAt,value
2018-09-03T00:02:23.648Z,26.70
2018-09-03T00:04:50.945Z,26.10
2018-09-03T00:07:18.061Z,27.80
2018-09-03T00:09:45.212Z,23.87
2018-09-03T00:12:12.416Z,24.30
2018-09-03T00:14:39.937Z,25.40
2018-09-03T00:17:07.776Z,24.07
2018-09-03T00:19:35.068Z,30.57
2018-09-03T00:22:02.272Z,26.83
2018-09-03T00:24:29.564Z,28.43
2018-09-03T00:26:56.729Z,23.70
2018-09-03T00:29:23.951Z,25.20
2018-09-03T00:31:56.950Z,22.57
2018-09-03T00:34:29.677Z,24.03
2018-09-03T00:37:02.483Z,25.00
2018-09-03T00:39:35.337Z,23.53
2018-09-03T00:42:08.142Z,23.13
2018-09-03T00:44:40.897Z,22.70
2018-09-03T00:47:09.612Z,24.47
2018-09-03T00:49:36.717Z,24.70
2018-09-03T00:52:03.963Z,24.57
2018-09-03T00:54:31.124Z,23.27
2018-09-03T00:56:58.276Z,23.10
2018-09-03T00:59:25.644Z,25.00
2018-09-03T01:01:52.819Z,20.83
2018-09-03T01:04:20.144Z,22.03
2018-09-03T01:06:47.324Z,21.80
2018-09-03T01:09:14.444Z,23.63
2018-09-03T01:11:41.620Z,23.37
2018-09-03T01:14:08.731Z,24.70
2018-09-03T01:16:35.932Z,22.07
2018-09-03T01:19:03.121Z,24.67
2018-09-03T01:21:30.276Z,26.20
2018-09-03T01:23:57.568Z,24.53
2018-09-03T01:26:24.736Z,25.83
2018-09-03T01:28:52.185Z,27.60
2018-09-03T01:31:20.269Z,29.20
2018-09-03T01:33:49.588Z,26.60
2018-09-03T01:36:17.411Z,26.43
2018-09-03T01:38:44.508Z,31.40
2018-09-03T01:41:11.704Z,36.70
2018-09-03T01:43:38.901Z,28.47
2018-09-03T01:46:06.041Z,30.87
2018-09-03T01:48:33.341Z,40.93
2018-09-03T01:51:00.552Z,29.47
2018-09-03T01:53:27.681Z,28.93
2018-09-03T01:55:54.930Z,34.37
2018-09-03T01:58:22.085Z,29.87
2018-09-03T02:00:49.196Z,30.77
2018-09-03T02:03:17.176Z,24.17
2018-09-03T02:05:44.322Z,27.90
2018-09-03T02:08:11.436Z,29.43
2018-09-03T02:10:38.620Z,29.10
2018-09-03T02:13:05.753Z,25.37
2018-09-03T02:15:32.876Z,27.77
2018-09-03T02:18:00.034Z,30.40
2018-09-03T02:20:27.180Z,31.83
2018-09-03T02:22:54.440Z,26.37
2018-09-03T02:25:21.627Z,27.03
2018-09-03T02:27:48.777Z,23.77
2018-09-03T02:30:16.012Z,27.70
2018-09-03T02:32:43.174Z,27.60
2018-09-03T02:35:10.345Z,24.57
2018-09-03T02:37:37.611Z,25.37
2018-09-03T02:40:05.096Z,27.23
2018-09-03T02:42:32.240Z,24.70
2018-09-03T02:44:59.365Z,22.77
2018-09-03T02:47:26.480Z,22.37
2018-09-03T02:49:53.784Z,20.20
2018-09-03T02:52:21.086Z,21.40
2018-09-03T02:54:48.217Z,20.37
2018-09-03T02:57:15.514Z,24.97
2018-09-03T02:59:42.732Z,20.60
2018-09-03T03:02:09.925Z,26.40
2018-09-03T03:04:37.268Z,22.87
2018-09-03T03:07:04.643Z,24.43
2018-09-03T03:09:31.765Z,24.67
2018-09-03T03:11:58.866Z,24.87
2018-09-03T03:14:25.957Z,18.83
2018-09-03T03:16:53.228Z,26.57
2018-09-03T03:19:21.028Z,23.10
2018-09-03T03:21:48.152Z,21.77
2018-09-03T03:24:15.380Z,22.60
2018-09-03T03:26:42.620Z,25.47
2018-09-03T03:29:09.797Z,23.93
2018-09-03T03:31:37.065Z,26.00
2018-09-03T03:34:04.848Z,26.83
2018-09-03T03:36:31.965Z,33.07
2018-09-03T03:38:59.137Z,32.70
2018-09-03T03:41:26.292Z,36.93
2018-09-03T03:43:53.547Z,37.73
2018-09-03T03:46:20.816Z,38.03
2018-09-03T03:48:48.094Z,35.50
2018-09-03T03:51:15.512Z,37.43
2018-09-03T03:53:42.639Z,41.70
2018-09-03T03:56:09.740Z,37.53
2018-09-03T03:58:36.992Z,35.13
2018-09-03T04:01:04.162Z,37.90
2018-09-03T04:03:31.253Z,35.90
2018-09-03T04:05:58.508Z,33.97
2018-09-03T04:08:25.636Z,39.70
2018-09-03T04:10:52.792Z,39.27
2018-09-03T04:13:20.085Z,41.20
2018-09-03T04:15:47.208Z,37.77
2018-09-03T04:18:14.379Z,40.80
2018-09-03T04:20:41.537Z,39.33
2018-09-03T04:23:08.743Z,36.17
2018-09-03T04:25:35.852Z,40.37
2018-09-03T04:28:03.062Z,41.43
2018-09-03T04:30:30.224Z,39.73
2018-09-03T04:32:57.464Z,37.57
2018-09-03T04:35:24.729Z,38.80
2018-09-03T04:37:52.164Z,32.67
2018-09-03T04:40:19.428Z,36.10
2018-09-03T04:42:46.616Z,31.73
2018-09-03T04:45:13.752Z,35.87
2018-09-03T04:47:40.977Z,36.93
2018-09-03T04:50:08.105Z,36.67
2018-09-03T04:52:35.292Z,36.10
2018-09-03T04:55:02.788Z,37.23
2018-09-03T04:57:29.869Z,41.03
2018-09-03T04:59:57.107Z,38.53
2018-09-03T05:02:24.255Z,39.47
2018-09-03T05:04:51.393Z,45.80
2018-09-03T05:07:18.685Z,43.93
2018-09-03T05:09:46.000Z,36.93
2018-09-03T05:12:13.093Z,41.37
2018-09-03T05:14:40.328Z,41.70
2018-09-03T05:17:07.498Z,39.20
2018-09-03T05:19:34.716Z,37.27
2018-09-03T05:22:01.940Z,36.83
2018-09-03T05:24:29.152Z,40.17
2018-09-03T05:26:56.435Z,42.93
2018-09-03T05:29:24.160Z,33.53
2018-09-03T05:31:51.380Z,39.47
2018-09-03T05:34:18.603Z,33.27
2018-09-03T05:36:45.925Z,40.87
2018-09-03T05:39:13.244Z,39.63
2018-09-03T05:41:40.602Z,39.67
2018-09-03T05:44:08.385Z,35.30
2018-09-03T05:46:39.099Z,36.30
2018-09-03T05:49:06.192Z,35.03
2018-09-03T05:51:33.450Z,35.83
2018-09-03T05:54:00.581Z,36.17
2018-09-03T05:56:27.846Z,33.87
2018-09-03T05:58:55.086Z,38.30
2018-09-03T06:01:22.236Z,36.07
2018-09-03T06:03:49.362Z,35.90
2018-09-03T06:06:16.585Z,39.10
2018-09-03T06:08:43.755Z,40.20
2018-09-03T06:11:10.999Z,36.63
2018-09-03T06:13:38.100Z,35.03
2018-09-03T06:16:05.436Z,34.53
2018-09-03T06:18:32.633Z,36.07
2018-09-03T06:20:59.880Z,37.33
2018-09-03T06:23:26.955Z,38.20
2018-09-03T06:25:54.172Z,41.60
2018-09-03T06:28:21.280Z,39.97
2018-09-03T06:30:48.483Z,45.50
2018-09-03T06:33:15.924Z,38.60
2018-09-03T06:35:43.056Z,37.13
2018-09-03T06:38:10.183Z,49.63
2018-09-03T06:40:37.337Z,43.60
2018-09-03T06:43:04.843Z,40.13
2018-09-03T06:45:32.015Z,40.33
2018-09-03T06:47:59.221Z,39.73
2018-09-03T06:50:26.328Z,41.40
2018-09-03T06:52:53.444Z,42.13
2018-09-03T06:55:20.621Z,41.67
2018-09-03T06:57:47.916Z,40.90
2018-09-03T07:00:15.204Z,42.63
2018-09-03T07:02:42.416Z,39.87
2018-09-03T07:05:09.612Z,33.10
2018-09-03T07:07:36.745Z,35.00
2018-09-03T07:10:05.124Z,37.03
2018-09-03T07:12:32.270Z,38.30
2018-09-03T07:14:59.428Z,34.97
2018-09-03T07:17:26.581Z,32.27
2018-09-03T07:19:53.720Z,38.37
2018-09-03T07:22:20.956Z,32.40
2018-09-03T07:24:48.135Z,33.03
2018-09-03T07:27:15.464Z,26.83
2018-09-03T07:29:43.313Z,33.33
2018-09-03T07:32:10.487Z,28.67
2018-09-03T07:34:37.708Z,30.10
2018-09-03T07:37:04.872Z,28.00
2018-09-03T07:39:32.009Z,26.07
2018-09-03T07:41:59.176Z,26.93
2018-09-03T07:44:26.312Z,28.43
2018-09-03T07:46:53.433Z,23.87
2018-09-03T07:49:20.572Z,25.80
2018-09-03T07:51:47.710Z,27.40
2018-09-03T07:54:14.992Z,29.80
2018-09-03T07:56:42.184Z,28.40
2018-09-03T07:59:09.332Z,24.73
2018-09-03T08:01:36.470Z,25.03
2018-09-03T08:04:03.569Z,23.77
2018-09-03T08:06:30.701Z,21.73
2018-09-03T08:08:57.986Z,27.40
2018-09-03T08:11:25.159Z,22.33
2018-09-03T08:13:52.276Z,21.10
2018-09-03T08:16:19.583Z,24.83
2018-09-03T08:18:46.835Z,24.93
2018-09-03T08:21:14.077Z,23.80
2018-09-03T08:23:41.256Z,25.63
2018-09-03T08:26:08.381Z,21.13
2018-09-03T08:28:35.605Z,22.13
2018-09-03T08:31:02.697Z,28.67
2018-09-03T08:33:29.828Z,23.93
2018-09-03T08:35:57.540Z,26.07
2018-09-03T08:38:24.701Z,22.40
2018-09-03T08:40:51.852Z,28.27
2018-09-03T08:43:19.148Z,29.77
2018-09-03T08:45:46.273Z,26.40
2018-09-03T08:48:13.472Z,32.17
2018-09-03T08:50:40.617Z,24.70
2018-09-03T08:53:07.800Z,24.87
2018-09-03T08:55:35.041Z,27.37
2018-09-03T08:58:02.141Z,24.50
2018-09-03T09:00:29.268Z,27.83
2018-09-03T09:02:56.596Z,26.40
2018-09-03T09:05:23.740Z,26.70
2018-09-03T09:07:50.894Z,31.83
2018-09-03T09:10:18.150Z,28.80
2018-09-03T09:12:45.306Z,31.20
2018-09-03T09:15:12.468Z,25.37
2018-09-03T09:17:39.719Z,28.97
2018-09-03T09:20:06.793Z,26.23
2018-09-03T09:22:34.029Z,29.43
2018-09-03T09:25:01.163Z,28.50
2018-09-03T09:27:28.280Z,37.10
2018-09-03T09:29:55.527Z,31.20
2018-09-03T09:32:22.660Z,29.17
2018-09-03T09:34:49.804Z,25.27
2018-09-03T09:37:16.996Z,23.90
2018-09-03T09:39:44.547Z,21.77
2018-09-03T09:42:11.784Z,18.77
2018-09-03T09:44:38.891Z,18.20
2018-09-03T09:47:05.984Z,20.13
2018-09-03T09:49:33.244Z,25.90
2018-09-03T09:52:00.408Z,21.07
2018-09-03T09:54:27.569Z,20.57
2018-09-03T09:56:54.856Z,25.03
2018-09-03T09:59:22.026Z,24.50
2018-09-03T10:01:49.167Z,24.37
2018-09-03T10:04:16.404Z,22.83
2018-09-03T10:06:43.468Z,25.50
2018-09-03T10:09:10.601Z,21.30
2018-09-03T10:11:37.906Z,21.20
2018-09-03T10:14:05.483Z,20.27
2018-09-03T10:16:32.859Z,17.67
2018-09-03T10:18:59.949Z,18.63
2018-09-03T10:21:27.065Z,17.33
2018-09-03T10:24:00.965Z,16.10
2018-09-03T10:26:28.166Z,14.47
2018-09-03T10:28:55.440Z,15.97
2018-09-03T10:31:22.667Z,15.60
2018-09-03T10:33:50.052Z,16.10
2018-09-03T10:36:17.400Z,16.47
2018-09-03T10:38:44.552Z,17.73
2018-09-03T10:41:11.781Z,16.37
2018-09-03T10:43:38.967Z,15.20
2018-09-03T10:46:06.108Z,15.73
2018-09-03T10:48:33.285Z,14.93
2018-09-03T10:51:00.444Z,17.37
2018-09-03T10:53:27.666Z,18.77
2018-09-03T10:55:54.852Z,19.10
2018-09-03T10:58:22.158Z,16.90
2018-09-03T11:00:49.312Z,16.70
2018-09-03T11:03:17.148Z,14.90
2018-09-03T11:05:44.269Z,17.97
2018-09-03T11:08:11.405Z,16.73
2018-09-03T11:10:38.689Z,17.53
2018-09-03T11:13:06.020Z,16.97
2018-09-03T11:15:33.134Z,17.93
2018-09-03T11:18:00.294Z,18.83
2018-09-03T11:20:29.136Z,17.93
2018-09-03T11:22:56.872Z,16.83
2018-09-03T11:25:25.410Z,18.00
2018-09-03T11:27:53.465Z,19.60
2018-09-03T11:30:21.071Z,19.87
2018-09-03T11:32:53.808Z,20.37
2018-09-03T11:35:27.807Z,20.13
2018-09-03T11:37:54.940Z,19.30
2018-09-03T11:40:22.989Z,20.40
2018-09-03T11:42:50.141Z,20.80
2018-09-03T11:45:19.087Z,19.17
2018-09-03T11:47:46.664Z,19.07
2018-09-03T11:50:14.400Z,19.57
2018-09-03T11:52:41.535Z,19.43
2018-09-03T11:55:08.720Z,20.77
2018-09-03T11:57:36.003Z,21.37
2018-09-03T12:00:04.333Z,21.50
2018-09-03T12:02:31.516Z,21.97
2018-09-03T12:04:58.680Z,19.50
2018-09-03T12:07:25.865Z,21.67
2018-09-03T12:09:53.360Z,19.53
2018-09-03T12:12:20.653Z,21.90
2018-09-03T12:14:50.478Z,21.10
2018-09-03T12:17:17.767Z,21.90
2018-09-03T12:19:44.996Z,20.23
2018-09-03T12:22:12.144Z,21.23
2018-09-03T12:24:39.300Z,22.90
2018-09-03T12:27:06.570Z,23.27
2018-09-03T12:29:34.149Z,26.13
2018-09-03T12:32:01.278Z,24.47
2018-09-03T12:34:28.497Z,25.47
2018-09-03T12:36:55.618Z,25.07
2018-09-03T12:39:22.768Z,22.77
2018-09-03T12:41:50.039Z,25.03
2018-09-03T12:44:17.208Z,22.23
2018-09-03T12:46:44.353Z,23.07
2018-09-03T12:49:11.513Z,25.23
2018-09-03T12:51:38.657Z,21.00
2018-09-03T12:54:05.901Z,17.67
2018-09-03T12:56:33.075Z,19.47
2018-09-03T12:59:00.169Z,17.50
2018-09-03T13:01:27.485Z,17.67
2018-09-03T13:03:54.639Z,18.70
2018-09-03T13:06:21.857Z,15.87
2018-09-03T13:08:49.164Z,14.67
2018-09-03T13:11:16.336Z,17.70
2018-09-03T13:13:43.510Z,17.10
2018-09-03T13:16:10.649Z,17.23
2018-09-03T13:18:37.811Z,13.30
2018-09-03T13:21:05.351Z,14.80
2018-09-03T13:23:32.509Z,16.23
2018-09-03T13:25:59.646Z,14.70
2018-09-03T13:28:26.904Z,15.77
2018-09-03T13:30:54.092Z,15.30
2018-09-03T13:33:21.240Z,14.77
2018-09-03T13:35:48.552Z,15.10
2018-09-03T13:38:15.689Z,13.67
2018-09-03T13:40:42.885Z,18.80
2018-09-03T13:43:10.112Z,15.00
2018-09-03T13:45:37.279Z,13.90
2018-09-03T13:48:04.491Z,14.30
2018-09-03T13:50:31.699Z,14.17
2018-09-03T13:52:58.838Z,12.47
2018-09-03T13:55:26.019Z,12.83
2018-09-03T13:57:53.208Z,12.53
2018-09-03T14:00:20.528Z,12.77
2018-09-03T14:02:47.805Z,13.13
2018-09-03T14:05:14.962Z,11.93
2018-09-03T14:07:42.085Z,13.07
2018-09-03T14:10:09.430Z,13.10
2018-09-03T14:12:36.512Z,13.23
2018-09-03T14:15:04.096Z,13.03
2018-09-03T14:17:31.525Z,14.60
2018-09-03T14:19:58.863Z,14.50
2018-09-03T14:22:26.056Z,12.97
2018-09-03T14:25:00.057Z,13.50
2018-09-03T14:27:27.238Z,13.07
2018-09-03T14:29:54.477Z,12.50
2018-09-03T14:32:21.614Z,12.00
2018-09-03T14:34:48.861Z,13.13
2018-09-03T14:37:16.159Z,14.97
2018-09-03T14:39:43.324Z,13.87
2018-09-03T14:42:10.469Z,17.40
2018-09-03T14:47:11.652Z,15.97
2018-09-03T14:52:13.288Z,16.40
2018-09-03T14:54:40.420Z,17.60
2018-09-03T14:57:07.629Z,20.63
2018-09-03T14:59:34.707Z,18.40
2018-09-03T15:02:01.915Z,19.70
2018-09-03T15:04:29.133Z,21.63
2018-09-03T15:06:56.311Z,19.53
2018-09-03T15:09:23.465Z,18.93
2018-09-03T15:11:50.592Z,17.47
2018-09-03T15:14:18.712Z,17.27
2018-09-03T15:16:45.934Z,18.33
2018-09-03T15:19:13.106Z,18.53
2018-09-03T15:21:40.256Z,18.53
2018-09-03T15:24:07.580Z,18.70
2018-09-03T15:26:34.761Z,18.80
2018-09-03T15:29:01.948Z,18.50
2018-09-03T15:31:29.175Z,19.10
2018-09-03T15:33:56.273Z,20.23
2018-09-03T15:36:23.778Z,19.30
2018-09-03T15:38:51.077Z,19.53
2018-09-03T15:41:18.221Z,18.03
2018-09-03T15:43:45.450Z,15.40
2018-09-03T15:46:12.613Z,17.33
2018-09-03T15:48:39.854Z,16.40
2018-09-03T15:51:07.058Z,12.60
2018-09-03T15:53:34.291Z,12.20
2018-09-03T15:56:02.345Z,11.57
2018-09-03T15:58:30.036Z,12.83
2018-09-03T16:00:57.193Z,12.60
2018-09-03T16:03:24.357Z,13.80
2018-09-03T16:05:51.596Z,13.93
2018-09-03T16:08:18.788Z,11.77
2018-09-03T16:10:45.967Z,11.77
2018-09-03T16:13:13.173Z,12.20
2018-09-03T16:15:40.337Z,12.80
2018-09-03T16:18:07.644Z,14.00
2018-09-03T16:20:34.920Z,13.40
2018-09-03T16:23:02.097Z,13.17
2018-09-03T16:25:29.256Z,14.97
2018-09-03T16:27:56.450Z,12.87
2018-09-03T16:30:23.606Z,15.30
2018-09-03T16:32:50.788Z,14.43
2018-09-03T16:35:17.989Z,15.70
2018-09-03T16:37:45.180Z,15.73
2018-09-03T16:40:13.581Z,16.27
2018-09-03T16:42:40.793Z,17.83
2018-09-03T16:45:08.033Z,15.43
2018-09-03T16:47:35.219Z,16.30
2018-09-03T16:50:02.643Z,20.13
2018-09-03T16:52:29.817Z,19.20
2018-09-03T16:54:57.058Z,15.20
2018-09-03T16:57:24.181Z,17.90
2018-09-03T16:59:51.368Z,16.33
2018-09-03T17:02:18.523Z,12.67
2018-09-03T17:04:45.816Z,14.57
2018-09-03T17:07:13.086Z,15.77
2018-09-03T17:09:40.326Z,15.43
2018-09-03T17:12:07.529Z,14.47
2018-09-03T17:14:34.787Z,12.63
2018-09-03T17:17:01.961Z,13.40
2018-09-03T17:19:29.115Z,16.97
2018-09-03T17:21:56.281Z,14.67
2018-09-03T17:24:23.420Z,13.63
2018-09-03T17:26:50.588Z,18.70
2018-09-03T17:29:17.968Z,19.20
2018-09-03T17:31:45.160Z,23.53
2018-09-03T17:34:12.420Z,19.80
2018-09-03T17:36:39.635Z,18.73
2018-09-03T17:39:07.301Z,17.27
2018-09-03T17:41:34.571Z,16.67
2018-09-03T17:44:01.676Z,14.70
2018-09-03T17:46:28.824Z,17.17
2018-09-03T17:48:56.081Z,15.77
2018-09-03T17:51:23.207Z,13.83
2018-09-03T17:53:50.336Z,17.20
2018-09-03T17:56:17.688Z,18.67
2018-09-03T17:58:44.945Z,21.57
2018-09-03T18:01:12.165Z,19.07
2018-09-03T18:03:39.523Z,17.67
2018-09-03T18:06:06.653Z,17.80
2018-09-03T18:08:33.892Z,18.23
2018-09-03T18:11:01.016Z,16.60
2018-09-03T18:13:28.163Z,17.57
2018-09-03T18:15:55.427Z,18.37
2018-09-03T18:18:22.542Z,17.10
2018-09-03T18:20:49.696Z,18.40
2018-09-03T18:23:16.917Z,19.03
2018-09-03T18:25:44.112Z,16.90
2018-09-03T18:28:11.293Z,17.47
2018-09-03T18:30:38.544Z,19.00
2018-09-03T18:33:05.683Z,18.57
2018-09-03T18:35:32.892Z,18.27
2018-09-03T18:38:00.110Z,17.07
2018-09-03T18:40:27.288Z,17.03
2018-09-03T18:42:54.492Z,20.97
2018-09-03T18:45:21.739Z,19.37
2018-09-03T18:47:48.894Z,17.10
2018-09-03T18:50:17.204Z,18.60
2018-09-03T18:52:44.356Z,16.97
2018-09-03T18:55:11.532Z,17.90
2018-09-03T18:57:38.836Z,17.40
2018-09-03T19:00:06.916Z,20.83
2018-09-03T19:02:34.025Z,21.90
2018-09-03T19:05:01.349Z,20.17
2018-09-03T19:07:28.502Z,19.10
2018-09-03T19:09:55.721Z,17.63
2018-09-03T19:12:24.019Z,17.03
2018-09-03T19:14:51.332Z,19.50
2018-09-03T19:17:18.531Z,19.80
2018-09-03T19:19:45.941Z,20.80
2018-09-03T19:22:13.149Z,19.73
2018-09-03T19:24:40.292Z,20.60
2018-09-03T19:27:07.876Z,18.90
2018-09-03T19:29:36.219Z,17.73
2018-09-03T19:32:04.322Z,20.13
2018-09-03T19:34:31.516Z,20.37
2018-09-03T19:36:58.716Z,25.20
2018-09-03T19:39:25.866Z,19.10
2018-09-03T19:41:53.200Z,21.07
2018-09-03T19:44:20.438Z,21.40
2018-09-03T19:46:47.613Z,22.33
2018-09-03T19:49:14.821Z,22.07
2018-09-03T19:51:42.061Z,26.63
2018-09-03T19:56:43.293Z,20.50
2018-09-03T19:59:10.446Z,20.47
2018-09-03T20:01:37.724Z,22.73
2018-09-03T20:04:05.020Z,23.27
2018-09-03T20:06:32.169Z,24.37
2018-09-03T20:08:59.847Z,21.97
2018-09-03T20:11:29.157Z,23.40
2018-09-03T20:13:56.317Z,24.50
2018-09-03T20:16:23.509Z,25.47
2018-09-03T20:18:50.857Z,24.43
2018-09-03T20:21:18.092Z,24.03
2018-09-03T20:23:45.276Z,22.70
2018-09-03T20:26:12.433Z,23.27
2018-09-03T20:28:39.590Z,25.43
2018-09-03T20:31:06.738Z,20.93
2018-09-03T20:33:33.928Z,21.43
2018-09-03T20:36:01.084Z,20.43
2018-09-03T20:38:28.297Z,21.03
2018-09-03T20:40:55.468Z,23.07
2018-09-03T20:43:22.652Z,24.50
2018-09-03T20:45:50.043Z,22.57
2018-09-03T20:48:17.325Z,25.93
2018-09-03T20:50:44.447Z,24.10
2018-09-03T20:53:11.744Z,23.40
2018-09-03T20:55:38.998Z,20.53
2018-09-03T20:58:06.200Z,22.47
2018-09-03T21:00:33.427Z,20.17
2018-09-03T21:03:00.573Z,22.07
2018-09-03T21:05:27.879Z,22.27
2018-09-03T21:07:55.010Z,22.80
2018-09-03T21:10:22.183Z,19.87
2018-09-03T21:12:49.577Z,20.27
2018-09-03T21:15:16.760Z,21.33
2018-09-03T21:17:43.927Z,20.23
2018-09-03T21:20:11.089Z,19.60
2018-09-03T21:22:38.273Z,21.60
2018-09-03T21:25:05.616Z,21.20
2018-09-03T21:27:32.920Z,22.07
2018-09-03T21:30:00.055Z,21.47
2018-09-03T21:32:27.264Z,21.40
2018-09-03T21:34:54.598Z,22.73
2018-09-03T21:37:21.681Z,20.83
2018-09-03T21:39:48.986Z,20.87
2018-09-03T21:42:16.145Z,20.97
2018-09-03T21:44:43.361Z,23.50
2018-09-03T21:47:10.596Z,22.10
2018-09-03T21:49:37.756Z,19.77
2018-09-03T21:52:05.061Z,19.50
2018-09-03T21:54:32.280Z,19.33
2018-09-03T21:56:59.401Z,18.93
2018-09-03T21:59:26.604Z,19.20
2018-09-03T22:01:53.709Z,19.60
2018-09-03T22:04:20.849Z,20.80
2018-09-03T22:06:48.108Z,20.60
2018-09-03T22:09:15.293Z,24.17
2018-09-03T22:11:42.432Z,23.93
2018-09-03T22:14:09.659Z,22.13
2018-09-03T22:16:36.765Z,22.30
2018-09-03T22:19:04.035Z,26.97
2018-09-03T22:21:31.268Z,25.10
2018-09-03T22:23:58.379Z,25.17
2018-09-03T22:26:25.548Z,25.10
2018-09-03T22:28:52.712Z,28.03
2018-09-03T22:31:19.928Z,25.73
2018-09-03T22:33:47.204Z,23.27
2018-09-03T22:36:14.338Z,27.07
2018-09-03T22:38:41.466Z,24.80
2018-09-03T22:41:08.565Z,28.00
2018-09-03T22:43:35.680Z,25.43
2018-09-03T22:46:02.874Z,24.77
2018-09-03T22:48:30.096Z,25.60
2018-09-03T22:50:57.240Z,24.57
2018-09-03T22:53:24.432Z,25.77
2018-09-03T22:55:51.562Z,25.77
2018-09-03T22:58:18.797Z,29.93
2018-09-03T23:00:46.754Z,31.50
2018-09-03T23:03:13.972Z,27.33
2018-09-03T23:05:41.144Z,31.50
2018-09-03T23:08:08.296Z,32.03
2018-09-03T23:10:35.385Z,29.23
2018-09-03T23:13:02.625Z,32.70
2018-09-03T23:15:29.822Z,27.83
2018-09-03T23:17:56.961Z,28.20
2018-09-03T23:20:24.191Z,28.87
2018-09-03T23:22:51.384Z,28.23
2018-09-03T23:25:18.489Z,30.97
2018-09-03T23:27:45.773Z,31.50
2018-09-03T23:30:12.886Z,30.03
2018-09-03T23:32:39.968Z,31.30
2018-09-03T23:35:07.228Z,28.67
2018-09-03T23:37:34.340Z,29.33
2018-09-03T23:40:01.576Z,33.60
2018-09-03T23:42:28.775Z,33.00
2018-09-03T23:44:55.897Z,37.17
2018-09-03T23:47:23.217Z,37.40
2018-09-03T23:49:50.347Z,37.80
2018-09-03T23:52:17.429Z,35.63
2018-09-03T23:54:44.732Z,38.70
2018-09-03T23:57:11.837Z,41.63
2018-09-03T23:59:39.260Z,33.63
